createdAt,value
2023-03-06T00:02:53.089Z,63.57
2023-03-06T00:07:56.126Z,65.90
2023-03-06T00:13:04.971Z,54.22
2023-03-06T00:18:08.565Z,53.45
2023-03-06T00:23:12.229Z,57.48
2023-03-06T00:28:16.001Z,63.42
2023-03-06T00:33:19.047Z,66.40
2023-03-06T00:38:22.254Z,53.43
2023-03-06T00:43:25.365Z,53.41
2023-03-06T00:48:28.367Z,57.79
2023-03-06T00:53:31.372Z,63.30
2023-03-06T00:58:34.380Z,64.94
2023-03-06T01:03:37.588Z,54.83
2023-03-06T01:08:40.700Z,54.15
2023-03-06T01:13:44.686Z,58.92
2023-03-06T01:18:48.067Z,61.98
2023-03-06T01:23:51.642Z,65.60
2023-03-06T01:28:54.657Z,62.19
2023-03-06T01:33:57.562Z,61.17
2023-03-06T01:39:00.578Z,61.33
2023-03-06T01:44:03.887Z,61.87
2023-03-06T01:49:18.680Z,62.00
2023-03-06T01:54:26.985Z,63.10
2023-03-06T01:59:30.709Z,55.86
2023-03-06T02:04:35.374Z,53.26
2023-03-06T02:09:39.095Z,60.44
2023-03-06T02:14:42.776Z,64.26
2023-03-06T02:20:04.678Z,55.85
2023-03-06T02:25:32.358Z,57.92
2023-03-06T02:30:36.234Z,62.97
2023-03-06T02:35:40.553Z,67.54
2023-03-06T02:40:47.420Z,57.21
2023-03-06T02:45:52.004Z,55.08
2023-03-06T02:50:55.027Z,60.12
2023-03-06T02:55:57.973Z,67.72
2023-03-06T03:01:00.971Z,62.19
2023-03-06T03:06:06.109Z,52.80
2023-03-06T03:11:09.554Z,56.50
2023-03-06T03:16:15.704Z,63.58
2023-03-06T03:21:19.527Z,63.23
2023-03-06T03:26:22.779Z,53.64
2023-03-06T03:31:25.997Z,55.66
2023-03-06T03:36:29.087Z,59.39
2023-03-06T03:41:33.665Z,67.26
2023-03-06T03:46:36.778Z,56.01
2023-03-06T03:51:39.845Z,59.21
2023-03-06T03:56:44.573Z,63.85
2023-03-06T04:01:47.517Z,59.35
2023-03-06T04:06:50.702Z,59.96
2023-03-06T04:11:53.714Z,64.37
2023-03-06T04:16:56.721Z,56.91
2023-03-06T04:21:59.754Z,58.56
2023-03-06T04:27:02.625Z,65.49
2023-03-06T04:32:06.018Z,61.30
2023-03-06T04:37:23.620Z,59.97
2023-03-06T04:42:26.705Z,63.78
2023-03-06T04:47:29.709Z,57.81
2023-03-06T04:52:32.825Z,61.49
2023-03-06T04:57:36.897Z,63.46
2023-03-06T05:02:39.853Z,57.59
2023-03-06T05:07:43.267Z,62.46
2023-03-06T05:12:46.400Z,58.68
2023-03-06T05:17:49.585Z,56.89
2023-03-06T05:22:52.699Z,65.07
2023-03-06T05:27:55.600Z,58.36
2023-03-06T05:32:59.706Z,58.86
2023-03-06T05:38:02.741Z,62.43
2023-03-06T05:43:06.982Z,53.27
2023-03-06T05:48:13.265Z,57.72
2023-03-06T05:53:16.281Z,60.48
2023-03-06T05:58:19.263Z,60.45
2023-03-06T06:03:23.090Z,59.30
2023-03-06T06:08:26.213Z,58.07
2023-03-06T06:13:29.105Z,56.29
2023-03-06T06:18:32.012Z,54.19
2023-03-06T06:23:35.631Z,52.84
2023-03-06T06:28:38.985Z,51.66
2023-03-06T06:33:42.363Z,50.30
2023-03-06T06:38:45.579Z,48.00
2023-03-06T06:43:48.582Z,45.25
2023-03-06T06:48:54.864Z,44.46
2023-03-06T06:53:58.650Z,44.44
2023-03-06T06:59:15.770Z,43.41
2023-03-06T07:04:20.367Z,41.21
2023-03-06T07:09:23.858Z,39.48
2023-03-06T07:14:27.505Z,38.39
2023-03-06T07:19:30.613Z,37.45
2023-03-06T07:24:33.724Z,33.63
2023-03-06T07:29:36.839Z,35.91
2023-03-06T07:34:39.944Z,34.49
2023-03-06T07:39:43.464Z,33.89
2023-03-06T07:44:46.573Z,33.69
2023-03-06T07:49:49.578Z,32.82
2023-03-06T07:54:52.483Z,32.20
2023-03-06T07:59:55.546Z,31.75
2023-03-06T08:04:58.494Z,31.21
2023-03-06T08:10:01.609Z,30.15
2023-03-06T08:15:05.483Z,30.06
2023-03-06T08:20:10.511Z,30.17
2023-03-06T08:25:13.696Z,28.92
2023-03-06T08:30:17.187Z,29.12
2023-03-06T08:35:20.382Z,29.54
2023-03-06T08:40:23.529Z,29.45
2023-03-06T08:45:26.652Z,31.87
2023-03-06T08:50:29.743Z,35.19
2023-03-06T08:55:37.258Z,38.81
2023-03-06T09:00:40.445Z,41.69
2023-03-06T09:05:43.985Z,43.94
2023-03-06T09:10:48.559Z,45.58
2023-03-06T09:15:51.636Z,46.77
2023-03-06T09:20:54.747Z,46.73
2023-03-06T09:25:59.698Z,48.12
2023-03-06T09:31:17.313Z,47.91
2023-03-06T09:36:22.817Z,47.91
2023-03-06T09:41:29.412Z,47.96
2023-03-06T09:46:46.136Z,47.22
2023-03-06T09:52:28.357Z,46.67
2023-03-06T09:57:35.864Z,46.57
2023-03-06T10:02:46.388Z,46.44
2023-03-06T10:07:57.246Z,46.24
2023-03-06T10:13:06.493Z,45.29
2023-03-06T10:18:11.916Z,44.76
2023-03-06T10:23:27.080Z,44.77
2023-03-06T10:28:41.223Z,43.93
2023-03-06T10:33:57.436Z,43.72
2023-03-06T10:39:04.948Z,43.46
2023-03-06T10:44:09.501Z,43.16
2023-03-06T10:49:35.947Z,41.64
2023-03-06T10:54:42.720Z,41.27
2023-03-06T11:00:25.891Z,41.80
2023-03-06T11:05:28.792Z,41.09
2023-03-06T11:10:32.314Z,40.04
2023-03-06T11:15:35.877Z,40.00
2023-03-06T11:20:52.558Z,40.21
2023-03-06T11:26:02.660Z,39.51
2023-03-06T11:31:17.283Z,39.63
2023-03-06T11:36:28.099Z,39.38
2023-03-06T11:42:01.624Z,39.47
2023-03-06T11:47:23.323Z,39.84
2023-03-06T11:52:54.834Z,40.31
2023-03-06T11:58:16.581Z,40.12
2023-03-06T12:03:25.339Z,39.58
2023-03-06T12:08:40.516Z,39.51
2023-03-06T12:13:59.453Z,39.42
2023-03-06T12:19:36.501Z,38.75
2023-03-06T12:25:06.957Z,38.90
2023-03-06T12:30:35.454Z,38.60
2023-03-06T12:35:55.171Z,38.23
2023-03-06T12:41:26.321Z,38.60
2023-03-06T12:46:30.762Z,38.84
2023-03-06T12:51:34.702Z,39.65
2023-03-06T12:56:39.816Z,39.80
2023-03-06T13:02:08.512Z,39.18
2023-03-06T13:07:39.111Z,38.96
2023-03-06T13:13:08.743Z,38.65
2023-03-06T13:18:24.243Z,38.94
2023-03-06T13:23:33.326Z,39.13
2023-03-06T13:28:50.206Z,39.46
2023-03-06T13:33:54.859Z,38.95
2023-03-06T13:39:09.732Z,39.26
2023-03-06T13:44:24.680Z,39.56
2023-03-06T13:49:28.552Z,40.05
2023-03-06T13:54:56.658Z,40.52
2023-03-06T14:00:51.064Z,40.46
2023-03-06T14:05:54.388Z,40.01
2023-03-06T14:11:27.497Z,40.54
2023-03-06T14:16:49.364Z,41.13
2023-03-06T14:21:56.953Z,41.56
2023-03-06T14:26:59.960Z,41.87
2023-03-06T14:32:06.190Z,42.03
2023-03-06T14:37:20.948Z,42.48
2023-03-06T14:42:27.311Z,43.20
2023-03-06T14:47:32.988Z,43.43
2023-03-06T14:52:36.316Z,43.56
2023-03-06T14:57:39.609Z,43.73
2023-03-06T15:02:43.031Z,43.99
2023-03-06T15:07:46.520Z,44.23
2023-03-06T15:12:49.553Z,44.82
2023-03-06T15:17:53.069Z,45.26
2023-03-06T15:22:56.069Z,45.73
2023-03-06T15:28:43.525Z,45.95
2023-03-06T15:34:09.364Z,45.90
2023-03-06T15:39:41.251Z,46.50
2023-03-06T15:44:48.095Z,46.74
2023-03-06T15:49:53.298Z,46.88
2023-03-06T15:54:56.316Z,47.22
2023-03-06T16:00:01.560Z,47.45
2023-03-06T16:05:15.027Z,47.79
2023-03-06T16:10:27.455Z,48.01
2023-03-06T16:15:33.938Z,48.51
2023-03-06T16:20:36.936Z,48.78
2023-03-06T16:25:42.219Z,48.96
2023-03-06T16:30:46.030Z,49.50
2023-03-06T16:35:50.089Z,50.08
2023-03-06T16:40:53.055Z,51.31
2023-03-06T16:45:56.658Z,52.95
2023-03-06T16:51:00.124Z,55.65
2023-03-06T16:56:03.106Z,57.46
2023-03-06T17:01:07.337Z,57.24
2023-03-06T17:06:17.939Z,56.98
2023-03-06T17:11:20.929Z,56.87
2023-03-06T17:16:23.938Z,56.88
2023-03-06T17:21:27.161Z,57.35
2023-03-06T17:26:30.359Z,57.25
2023-03-06T17:31:33.394Z,57.63
2023-03-06T17:36:36.375Z,57.58
2023-03-06T17:41:39.584Z,57.69
2023-03-06T17:46:43.981Z,57.75
2023-03-06T17:51:47.139Z,58.11
2023-03-06T17:56:50.253Z,58.37
2023-03-06T18:01:59.745Z,58.39
2023-03-06T18:07:02.770Z,58.85
2023-03-06T18:12:05.861Z,59.25
2023-03-06T18:17:09.227Z,60.06
2023-03-06T18:22:12.137Z,60.14
2023-03-06T18:27:15.136Z,60.60
2023-03-06T18:32:19.254Z,60.95
2023-03-06T18:37:22.805Z,60.79
2023-03-06T18:42:26.829Z,61.00
2023-03-06T18:47:30.036Z,61.06
2023-03-06T18:52:34.953Z,61.53
2023-03-06T18:57:38.437Z,70.91
2023-03-06T19:02:41.506Z,68.99
2023-03-06T19:07:44.551Z,55.51
2023-03-06T19:12:47.729Z,56.24
2023-03-06T19:17:51.662Z,59.14
2023-03-06T19:22:54.876Z,60.84
2023-03-06T19:27:58.099Z,60.57
2023-03-06T19:33:01.196Z,70.00
2023-03-06T19:38:04.308Z,64.43
2023-03-06T19:43:07.215Z,53.84
2023-03-06T19:48:12.512Z,57.49
2023-03-06T19:53:16.316Z,60.49
2023-03-06T19:58:19.517Z,61.54
2023-03-06T20:03:22.613Z,68.85
2023-03-06T20:08:25.742Z,67.03
2023-03-06T20:13:28.930Z,54.16
2023-03-06T20:18:32.050Z,57.36
2023-03-06T20:23:35.351Z,60.83
2023-03-06T20:28:40.602Z,69.38
2023-03-06T20:33:48.942Z,57.96
2023-03-06T20:38:52.046Z,55.01
2023-03-06T20:43:55.156Z,58.76
2023-03-06T20:48:58.463Z,61.59
2023-03-06T20:54:02.348Z,70.46
2023-03-06T20:59:06.298Z,63.13
2023-03-06T21:04:10.715Z,54.71
2023-03-06T21:09:15.922Z,57.63
2023-03-06T21:14:18.829Z,60.72
2023-03-06T21:19:21.828Z,61.03
2023-03-06T21:24:24.742Z,68.29
2023-03-06T21:29:27.746Z,69.24
2023-03-06T21:34:30.650Z,55.91
2023-03-06T21:39:33.977Z,56.84
2023-03-06T21:44:37.085Z,60.66
2023-03-06T21:49:40.302Z,68.48
2023-03-06T21:54:43.401Z,58.31
2023-03-06T21:59:46.603Z,54.99
2023-03-06T22:04:53.381Z,58.45
2023-03-06T22:09:56.415Z,61.00
2023-03-06T22:14:59.516Z,69.55
2023-03-06T22:20:02.521Z,61.82
2023-03-06T22:25:06.129Z,54.80
2023-03-06T22:30:09.753Z,58.60
2023-03-06T22:35:12.766Z,60.76
2023-03-06T22:40:16.567Z,68.48
2023-03-06T22:45:19.589Z,68.37
2023-03-06T22:50:22.702Z,57.97
2023-03-06T22:55:26.320Z,56.16
2023-03-06T23:00:29.324Z,60.20
2023-03-06T23:05:32.338Z,67.84
2023-03-06T23:10:39.202Z,66.84
2023-03-06T23:15:42.496Z,61.78
2023-03-06T23:20:45.657Z,58.68
2023-03-06T23:25:49.161Z,56.85
2023-03-06T23:30:52.610Z,59.21
2023-03-06T23:35:55.628Z,63.24
2023-03-06T23:41:03.196Z,69.95
2023-03-06T23:46:07.473Z,67.64
2023-03-06T23:51:19.235Z,64.99
2023-03-06T23:56:22.636Z,62.70
